Time;durP1;ratioP1;P1;durP2;ratioP2;P2;SDS_P1;SDS_P2;PMS_P1;PMS_P2;Temp;Humidity;BMP_temperature;BMP_pressure;BME280_temperature;BME280_humidity;BME280_pressure;Samples;Min_cycle;Max_cycle;Signal;HPM_P1;HPM_P2
2022/05/07 00:01:52;;;;;;;0.40;0.30;;;;;;;15.46;100.00;95798.13;5111636;28;20427;-64
2022/05/07 00:04:22;;;;;;;0.70;0.50;;;;;;;15.53;100.00;95798.59;5111840;28;20419;-64
2022/05/07 00:06:51;;;;;;;0.40;0.30;;;;;;;15.52;100.00;95782.81;5111441;28;20880;-64
2022/05/07 00:09:20;;;;;;;0.50;0.30;;;;;;;15.32;100.00;95791.06;5111577;28;20519;-63
2022/05/07 00:11:48;;;;;;;0.40;0.20;;;;;;;15.44;100.00;95791.44;5111192;28;20498;-64
2022/05/07 00:14:17;;;;;;;0.40;0.20;;;;;;;14.99;100.00;95758.91;5111707;28;20466;-64
2022/05/07 00:19:34;;;;;;;0.63;0.63;;;;;;;15.59;100.00;95769.91;5111744;28;20435;-64
2022/05/07 00:22:03;;;;;;;0.50;0.50;;;;;;;15.01;100.00;95705.22;5111434;28;20455;-63
2022/05/07 00:24:31;;;;;;;0.60;0.60;;;;;;;15.34;100.00;95778.22;5111755;28;20427;-63
2022/05/07 00:27:00;;;;;;;0.40;0.30;;;;;;;15.24;100.00;95782.63;5110791;28;21020;-63
2022/05/07 00:29:28;;;;;;;0.50;0.50;;;;;;;14.71;100.00;95686.94;5111342;28;20432;-63
2022/05/07 00:31:57;;;;;;;0.50;0.30;;;;;;;14.95;100.00;95744.53;5111020;28;20467;-63
2022/05/07 00:34:26;;;;;;;0.60;0.60;;;;;;;15.08;100.00;95791.91;5111045;28;20423;-64
2022/05/07 00:36:56;;;;;;;0.40;0.40;;;;;;;15.15;100.00;95781.66;5111218;28;20522;-63
2022/05/07 00:39:25;;;;;;;0.80;0.40;;;;;;;15.19;100.00;95782.69;5113515;28;20522;-64
2022/05/07 00:41:54;;;;;;;0.40;0.30;;;;;;;15.21;100.00;95780.53;5114974;28;20430;-64
2022/05/07 00:44:22;;;;;;;0.40;0.30;;;;;;;15.15;100.00;95787.00;5114215;28;20513;-64
2022/05/07 00:46:51;;;;;;;2.87;0.80;;;;;;;15.18;100.00;95789.09;5114657;28;20522;-64
2022/05/07 00:49:19;;;;;;;0.33;0.30;;;;;;;15.05;100.00;95783.69;5114956;28;20435;-64
2022/05/07 00:51:47;;;;;;;0.40;0.20;;;;;;;13.74;100.00;95625.84;5114671;28;20515;-64
2022/05/07 00:54:17;;;;;;;0.40;0.40;;;;;;;15.06;100.00;95772.72;5114331;28;20514;-64
2022/05/07 00:56:45;;;;;;;0.40;0.30;;;;;;;15.03;100.00;95783.16;5114922;28;20467;-64
2022/05/07 00:59:14;;;;;;;0.40;0.30;;;;;;;14.05;100.00;95668.19;5114641;28;20875;-64
2022/05/07 01:01:42;;;;;;;0.40;0.30;;;;;;;14.74;100.00;95780.56;5114727;28;20844;-63
2022/05/07 01:04:12;;;;;;;0.50;0.30;;;;;;;14.70;100.00;95779.53;5114823;28;20428;-64
2022/05/07 01:06:41;;;;;;;0.40;0.30;;;;;;;14.75;100.00;95779.47;5113387;28;20561;-63
2022/05/07 01:09:11;;;;;;;0.63;0.63;;;;;;;14.59;100.00;95778.88;5114284;28;20429;-63
2022/05/07 01:11:42;;;;;;;0.40;0.30;;;;;;;14.65;100.00;95781.47;5114338;28;20424;-63
2022/05/07 01:14:10;;;;;;;0.40;0.30;;;;;;;14.54;100.00;95783.44;5114406;28;20885;-64
2022/05/07 01:16:39;;;;;;;0.50;0.40;;;;;;;14.57;100.00;95793.56;5114264;28;20938;-63
2022/05/07 01:19:07;;;;;;;0.80;0.63;;;;;;;14.54;100.00;95780.78;5114655;28;20423;-64
2022/05/07 01:21:37;;;;;;;0.60;0.53;;;;;;;14.64;100.00;95780.69;5114115;28;20909;-63
2022/05/07 01:24:06;;;;;;;0.40;0.30;;;;;;;14.56;100.00;95763.41;5113527;28;20436;-63
2022/05/07 01:26:36;;;;;;;0.60;0.57;;;;;;;14.68;100.00;95786.22;5114048;28;20459;-63
2022/05/07 01:29:04;;;;;;;0.40;0.30;;;;;;;14.68;100.00;95784.34;5114034;28;20504;-63
2022/05/07 01:31:33;;;;;;;6.23;0.90;;;;;;;14.48;100.00;95757.91;5114050;28;20519;-63
2022/05/07 01:34:01;;;;;;;0.60;0.57;;;;;;;14.52;100.00;95765.03;5114016;28;20933;-63
2022/05/07 01:36:30;;;;;;;0.47;0.47;;;;;;;14.18;100.00;95716.31;5113936;28;20863;-63
2022/05/07 01:38:59;;;;;;;0.50;0.33;;;;;;;14.65;100.00;95779.59;5114085;28;20514;-63
2022/05/07 01:41:28;;;;;;;0.50;0.50;;;;;;;14.55;100.00;95785.81;5113853;28;20514;-63
2022/05/07 01:43:56;;;;;;;0.40;0.30;;;;;;;14.47;100.00;95788.31;5113644;28;20878;-63
2022/05/07 01:49:10;;;;;;;0.30;0.20;;;;;;;14.71;100.00;95786.47;5113930;28;20455;-63
2022/05/07 01:51:39;;;;;;;0.67;0.50;;;;;;;14.69;100.00;95801.97;5112496;28;20459;-62
2022/05/07 01:54:09;;;;;;;0.40;0.40;;;;;;;14.34;100.00;95731.13;5113660;28;20431;-63
2022/05/07 01:56:37;;;;;;;0.77;0.77;;;;;;;14.71;100.00;95791.81;5113530;28;20455;-62
2022/05/07 01:59:06;;;;;;;0.40;0.30;;;;;;;9.89;100.00;95123.03;5113266;28;20955;-63
2022/05/07 02:01:35;;;;;;;1.73;1.13;;;;;;;14.73;100.00;95810.19;5113717;28;20423;-63
2022/05/07 02:04:06;;;;;;;0.40;0.30;;;;;;;14.77;100.00;95789.88;5113359;28;20530;-63
2022/05/07 02:06:35;;;;;;;0.40;0.20;;;;;;;13.94;100.00;95680.81;5113046;28;20948;-63
2022/05/07 02:09:04;;;;;;;0.33;0.20;;;;;;;14.63;100.00;95787.88;5113118;28;20963;-63
2022/05/07 02:11:34;;;;;;;0.40;0.30;;;;;;;14.69;100.00;95791.28;5114427;28;20860;-62
2022/05/07 02:14:02;;;;;;;0.50;0.50;;;;;;;14.63;100.00;95785.22;5113158;28;20972;-63
2022/05/07 02:16:31;;;;;;;0.30;0.20;;;;;;;14.77;100.00;95793.34;5113126;28;20945;-62
2022/05/07 02:19:00;;;;;;;0.60;0.30;;;;;;;14.76;100.00;95772.28;5113542;28;20472;-62
2022/05/07 02:21:28;;;;;;;0.50;0.33;;;;;;;14.65;100.00;95763.56;5113051;28;20471;-63
2022/05/07 02:23:57;;;;;;;0.40;0.30;;;;;;;14.72;100.00;95784.59;5113007;28;20860;-62
2022/05/07 02:26:25;;;;;;;0.40;0.30;;;;;;;14.77;100.00;95787.22;5112909;28;20467;-63
2022/05/07 02:28:55;;;;;;;0.40;0.40;;;;;;;14.67;100.00;95796.13;5112771;28;20863;-63
2022/05/07 02:31:23;;;;;;;0.50;0.50;;;;;;;14.24;100.00;95802.38;5113239;28;20448;-63
2022/05/07 02:33:52;;;;;;;0.40;0.30;;;;;;;13.99;100.00;95782.84;5112861;28;20455;-63
2022/05/07 02:36:20;;;;;;;0.53;0.53;;;;;;;14.01;100.00;95772.69;5112134;28;20432;-63
2022/05/07 02:38:49;;;;;;;0.50;0.30;;;;;;;13.42;100.00;95748.09;5112797;28;20530;-63
2022/05/07 02:44:06;;;;;;;0.40;0.30;;;;;;;14.40;100.00;95785.16;5112468;28;20508;-63
2022/05/07 02:46:35;;;;;;;0.30;0.20;;;;;;;14.58;100.00;95787.94;5112633;28;20419;-63
2022/05/07 02:49:05;;;;;;;0.40;0.30;;;;;;;14.33;100.00;95793.50;5112803;28;20471;-62
2022/05/07 02:51:33;;;;;;;0.73;0.73;;;;;;;14.16;100.00;95800.31;5112679;28;20945;-62
2022/05/07 02:54:03;;;;;;;0.50;0.40;;;;;;;13.51;100.00;95733.09;5112680;28;20459;-63
2022/05/07 02:56:32;;;;;;;0.60;0.60;;;;;;;14.15;100.00;95793.38;5112715;28;20431;-63
2022/05/07 02:59:00;;;;;;;1.27;0.40;;;;;;;13.84;100.00;95792.81;5112329;28;20466;-62
2022/05/07 03:01:30;;;;;;;0.40;0.30;;;;;;;14.20;100.00;95801.31;5111889;28;20503;-62
2022/05/07 03:03:58;;;;;;;1.17;0.30;;;;;;;14.37;100.00;95793.75;5112139;28;20436;-62
2022/05/07 03:06:27;;;;;;;0.40;0.30;;;;;;;13.32;100.00;95670.94;5112302;28;20427;-62
2022/05/07 03:08:56;;;;;;;0.40;0.30;;;;;;;14.12;100.00;95797.38;5112137;28;20505;-63
2022/05/07 03:11:24;;;;;;;0.40;0.30;;;;;;;12.47;100.00;95597.75;5112572;28;20512;-61
2022/05/07 03:13:53;;;;;;;1.60;1.43;;;;;;;13.55;100.00;95774.09;5112216;28;20999;-62
2022/05/07 03:16:22;;;;;;;0.40;0.30;;;;;;;14.09;100.00;95807.84;5112084;28;20514;-61
2022/05/07 03:18:51;;;;;;;0.50;0.50;;;;;;;14.24;100.00;95802.38;5112079;28;20427;-62
2022/05/07 03:21:20;;;;;;;0.40;0.30;;;;;;;13.60;100.00;95710.16;5112108;28;20459;-62
2022/05/07 03:23:48;;;;;;;0.40;0.30;;;;;;;13.76;100.00;95804.06;5112039;28;20467;-62
2022/05/07 03:26:17;;;;;;;0.50;0.30;;;;;;;12.23;100.00;95665.88;5112270;28;20460;-62
2022/05/07 03:28:46;;;;;;;0.90;0.40;;;;;;;13.22;100.00;95814.75;5111232;28;20975;-62
2022/05/07 03:31:14;;;;;;;0.67;0.63;;;;;;;13.02;100.00;95806.81;5111996;28;20532;-62
2022/05/07 03:33:42;;;;;;;3.40;0.50;;;;;;;12.86;100.00;95800.75;5111713;28;20427;-62
2022/05/07 03:36:12;;;;;;;0.40;0.30;;;;;;;13.24;100.00;95815.28;5111984;28;20482;-62
2022/05/07 03:38:41;;;;;;;0.40;0.20;;;;;;;13.11;100.00;95821.97;5111892;28;20955;-62
2022/05/07 03:41:09;;;;;;;0.40;0.30;;;;;;;12.55;100.00;95809.88;5111934;28;20459;-63
2022/05/07 03:43:38;;;;;;;0.40;0.20;;;;;;;12.99;100.00;95821.47;5111645;28;21071;-65
2022/05/07 03:46:06;;;;;;;0.40;0.20;;;;;;;13.36;100.00;95821.88;5111760;28;20439;-63
2022/05/07 03:48:35;;;;;;;0.40;0.30;;;;;;;13.08;100.00;95793.25;5111553;28;21076;-67
2022/05/07 03:51:03;;;;;;;0.50;0.50;;;;;;;13.06;100.00;95827.31;5111993;28;20968;-70
2022/05/07 03:53:32;;;;;;;0.50;0.30;;;;;;;13.37;100.00;95822.66;5112316;28;20455;-64
2022/05/07 03:56:01;;;;;;;0.40;0.30;;;;;;;13.59;100.00;95831.06;5111785;28;20459;-64
2022/05/07 03:58:30;;;;;;;0.40;0.30;;;;;;;13.51;100.00;95791.69;5112183;28;20460;-63
2022/05/07 04:01:00;;;;;;;0.43;0.37;;;;;;;13.85;100.00;95824.53;5111864;28;20424;-64
2022/05/07 04:03:29;;;;;;;0.40;0.33;;;;;;;13.87;100.00;95825.03;5111883;28;21016;-63
2022/05/07 04:05:59;;;;;;;0.77;0.67;;;;;;;12.59;100.00;95612.31;5111677;28;20446;-65
2022/05/07 04:08:27;;;;;;;0.40;0.30;;;;;;;13.89;100.00;95814.09;5111664;28;20459;-64
2022/05/07 04:10:57;;;;;;;0.40;0.33;;;;;;;13.96;100.00;95831.34;5112015;28;20518;-64
2022/05/07 04:13:25;;;;;;;0.40;0.20;;;;;;;14.03;100.00;95833.72;5112879;28;20780;-64
2022/05/07 04:15:54;;;;;;;0.90;0.60;;;;;;;14.12;100.00;95829.38;5115678;28;20470;-66
2022/05/07 04:18:23;;;;;;;0.40;0.40;;;;;;;14.18;100.00;95830.94;5115909;28;20424;-63
2022/05/07 04:20:52;;;;;;;0.60;0.60;;;;;;;14.24;100.00;95831.69;5115694;28;20967;-69
2022/05/07 04:23:20;;;;;;;0.40;0.30;;;;;;;14.37;100.00;95828.44;5116015;28;20424;-62
2022/05/07 04:25:49;;;;;;;0.93;0.37;;;;;;;14.00;100.00;95820.94;5115453;28;20431;-62
2022/05/07 04:28:19;;;;;;;0.40;0.40;;;;;;;14.09;100.00;95839.81;5115311;28;20520;-63
2022/05/07 04:30:47;;;;;;;0.40;0.40;;;;;;;14.29;100.00;95837.00;5115889;28;20458;-60
2022/05/07 04:33:16;;;;;;;1.27;0.60;;;;;;;14.42;100.00;95845.16;5115647;28;20431;-62
2022/05/07 04:35:48;;;;;;;0.57;0.40;;;;;;;13.43;100.00;95845.56;5115641;28;20477;-62
2022/05/07 04:38:16;;;;;;;0.67;0.67;;;;;;;13.47;100.00;95848.44;5115796;28;20472;-61
2022/05/07 04:40:45;;;;;;;0.80;0.80;;;;;;;12.94;100.00;95831.34;5115200;28;20897;-61
2022/05/07 04:43:15;;;;;;;1.43;0.63;;;;;;;11.83;100.00;95675.56;5114471;28;20510;-61
2022/05/07 04:45:46;;;;;;;0.60;0.57;;;;;;;13.07;100.00;95841.44;5114843;28;20420;-61
2022/05/07 04:48:14;;;;;;;0.50;0.40;;;;;;;12.09;100.00;95791.31;5114611;28;20467;-61
2022/05/07 04:50:42;;;;;;;0.63;0.63;;;;;;;12.94;100.00;95855.28;5115038;28;20462;-63
2022/05/07 04:53:11;;;;;;;0.60;0.40;;;;;;;13.38;100.00;95842.91;5114984;28;20431;-61
2022/05/07 04:55:39;;;;;;;0.50;0.40;;;;;;;13.49;100.00;95844.44;5115154;28;20460;-63
2022/05/07 04:58:08;;;;;;;0.50;0.43;;;;;;;12.62;100.00;95848.41;5115135;28;20484;-62
2022/05/07 05:00:37;;;;;;;0.50;0.40;;;;;;;12.25;100.00;95850.59;5113942;28;20945;-63
2022/05/07 05:03:07;;;;;;;1.30;1.20;;;;;;;12.02;100.00;95861.72;5114735;28;20463;-63
2022/05/07 05:05:38;;;;;;;0.40;0.30;;;;;;;11.93;100.00;95855.38;5114944;28;20502;-63
2022/05/07 05:08:06;;;;;;;0.40;0.30;;;;;;;12.06;100.00;95863.63;5114640;28;20434;-57
2022/05/07 05:10:35;;;;;;;0.40;0.30;;;;;;;12.80;100.00;95859.59;5114319;28;20431;-64
2022/05/07 05:13:03;;;;;;;0.77;0.60;;;;;;;13.05;100.00;95862.16;5114817;28;20510;-60
2022/05/07 05:15:32;;;;;;;0.40;0.30;;;;;;;13.70;100.00;95869.91;5114609;28;20451;-61
2022/05/07 05:18:01;;;;;;;0.47;0.40;;;;;;;13.65;100.00;95861.13;5114365;28;20484;-60
2022/05/07 05:20:31;;;;;;;0.40;0.30;;;;;;;13.64;100.00;95860.34;5114134;28;20431;-61
2022/05/07 05:22:59;;;;;;;1.00;0.87;;;;;;;13.03;100.00;95870.41;5114565;28;20533;-61
2022/05/07 05:25:28;;;;;;;2.77;0.70;;;;;;;13.11;100.00;95866.44;5114053;28;20462;-62
2022/05/07 05:27:56;;;;;;;0.60;0.60;;;;;;;12.97;100.00;95876.03;5114486;28;21087;-62
2022/05/07 05:30:25;;;;;;;0.80;0.30;;;;;;;12.98;100.00;95873.09;5114089;28;20569;-61
2022/05/07 05:32:53;;;;;;;0.83;0.77;;;;;;;12.93;100.00;95859.03;5113831;28;20427;-61
2022/05/07 05:35:22;;;;;;;2.13;1.40;;;;;;;13.50;100.00;95886.00;5113957;28;20485;-62
2022/05/07 05:37:53;;;;;;;0.60;0.60;;;;;;;13.95;100.00;95872.41;5113783;28;20952;-61
2022/05/07 05:40:24;;;;;;;0.43;0.40;;;;;;;14.61;100.00;95834.59;5113920;28;20821;-61
2022/05/07 05:42:52;;;;;;;0.97;0.97;;;;;;;14.21;100.00;95874.91;5114201;28;20468;-61
2022/05/07 05:45:21;;;;;;;0.40;0.40;;;;;;;14.68;100.00;95877.75;5113792;28;20883;-63
2022/05/07 05:47:49;;;;;;;0.40;0.30;;;;;;;15.40;100.00;95866.03;5113853;28;20434;-57
2022/05/07 05:50:20;;;;;;;0.40;0.40;;;;;;;15.55;100.00;95862.41;5113608;28;21048;-60
2022/05/07 05:52:49;;;;;;;0.60;0.60;;;;;;;14.39;100.00;95868.94;5113802;28;20515;-62
2022/05/07 05:55:18;;;;;;;1.20;0.80;;;;;;;14.04;100.00;95869.16;5113575;28;20518;-61
2022/05/07 05:57:49;;;;;;;0.40;0.30;;;;;;;14.48;100.00;95869.91;5113968;28;20514;-64
2022/05/07 06:00:18;;;;;;;0.80;0.80;;;;;;;14.24;100.00;95877.03;5113207;28;20459;-64
2022/05/07 06:02:47;;;;;;;0.40;0.37;;;;;;;14.48;100.00;95875.25;5113543;28;20428;-64
2022/05/07 06:05:17;;;;;;;1.10;0.77;;;;;;;15.13;100.00;95877.28;5113425;28;20510;-65
2022/05/07 06:07:46;;;;;;;0.53;0.40;;;;;;;15.66;100.00;95866.53;5113446;28;20419;-65
2022/05/07 06:10:14;;;;;;;0.70;0.70;;;;;;;14.95;100.00;95874.56;5113268;28;20888;-66
2022/05/07 06:12:44;;;;;;;0.70;0.70;;;;;;;15.28;97.30;95871.78;5113413;28;20507;-66
2022/05/07 06:15:12;;;;;;;0.40;0.30;;;;;;;15.62;100.00;95870.84;5113192;28;20945;-66
2022/05/07 06:17:41;;;;;;;0.80;0.80;;;;;;;16.07;98.16;95875.56;5113259;28;20455;-59
2022/05/07 06:20:10;;;;;;;0.60;0.50;;;;;;;15.70;98.88;95862.22;5113332;28;20427;-60
2022/05/07 06:22:38;;;;;;;0.73;0.73;;;;;;;15.23;100.00;95873.69;5113175;28;20898;-59
2022/05/07 06:27:54;;;;;;;2.60;0.60;;;;;;;16.00;100.00;95875.16;5113293;28;20423;-60
2022/05/07 06:30:23;;;;;;;0.50;0.40;;;;;;;15.60;98.78;95865.00;5112651;28;20467;-60
2022/05/07 06:32:51;;;;;;;0.60;0.40;;;;;;;15.59;100.00;95858.88;5112913;28;20419;-60
2022/05/07 06:35:20;;;;;;;0.40;0.30;;;;;;;16.58;98.19;95862.22;5113158;28;20961;-60
2022/05/07 06:37:48;;;;;;;0.50;0.40;;;;;;;17.23;88.81;95854.88;5112308;28;20423;-59
2022/05/07 06:40:17;;;;;;;19.13;0.80;;;;;;;16.19;90.61;95845.72;5113016;28;20945;-60
2022/05/07 06:42:45;;;;;;;0.50;0.30;;;;;;;16.74;88.16;95788.63;5112810;28;20423;-60
2022/05/07 06:45:15;;;;;;;0.70;0.70;;;;;;;16.34;93.16;95859.63;5112447;28;20475;-59
2022/05/07 06:47:44;;;;;;;0.80;0.60;;;;;;;16.75;89.34;95853.63;5112740;28;20455;-59
2022/05/07 06:50:12;;;;;;;0.40;0.30;;;;;;;17.72;84.37;95838.91;5112468;28;20467;-59
2022/05/07 06:52:45;;;;;;;1.00;0.60;;;;;;;17.34;80.28;95844.75;5112594;28;20427;-59
2022/05/07 06:55:14;;;;;;;1.17;0.57;;;;;;;17.52;80.73;95847.38;5112561;28;20862;-59
2022/05/07 06:57:43;;;;;;;0.70;0.70;;;;;;;18.54;72.60;95822.53;5112494;28;20491;-59
2022/05/07 07:00:31;;;;;;;0.60;0.60;;;;;;;19.74;66.09;95833.75;5112292;28;20450;-58
2022/05/07 07:02:59;;;;;;;0.40;0.30;;;;;;;19.65;62.71;95849.09;5112086;28;20925;-57
2022/05/07 07:05:28;;;;;;;0.57;0.57;;;;;;;19.76;61.49;95839.59;5112341;28;20427;-58
2022/05/07 07:07:56;;;;;;;0.40;0.30;;;;;;;20.51;58.91;95836.50;5112420;28;20424;-57
2022/05/07 07:10:25;;;;;;;0.40;0.37;;;;;;;20.36;56.70;95837.00;5112203;28;20506;-57
2022/05/07 07:12:53;;;;;;;1.03;0.73;;;;;;;19.80;57.69;95834.41;5112250;28;20432;-58
2022/05/07 07:15:23;;;;;;;0.70;0.40;;;;;;;20.42;58.58;95821.44;5112293;28;20499;-59
2022/05/07 07:17:52;;;;;;;0.73;0.73;;;;;;;19.66;56.43;95834.53;5111971;28;20416;-60
2022/05/07 07:20:21;;;;;;;0.50;0.37;;;;;;;20.74;55.80;95827.09;5112246;28;20522;-59
2022/05/07 07:22:49;;;;;;;1.90;0.70;;;;;;;20.33;52.59;95783.78;5112460;28;20423;-61
2022/05/07 07:25:18;;;;;;;0.40;0.30;;;;;;;21.74;50.80;95829.22;5112178;28;20941;-60
2022/05/07 07:27:46;;;;;;;0.50;0.40;;;;;;;21.84;49.08;95824.22;5111812;28;20475;-57
2022/05/07 07:30:15;;;;;;;0.60;0.57;;;;;;;21.92;47.91;95818.03;5112192;28;20520;-59
2022/05/07 07:32:43;;;;;;;3.77;3.67;;;;;;;21.86;48.15;95815.81;5111852;28;20929;-59
2022/05/07 07:35:13;;;;;;;2.50;2.30;;;;;;;21.56;46.62;95820.44;5111912;28;20483;-60
2022/05/07 07:37:45;;;;;;;0.40;0.30;;;;;;;21.52;50.81;95814.91;5111876;28;20427;-60
2022/05/07 07:40:14;;;;;;;0.60;0.40;;;;;;;21.00;49.23;95775.81;5111042;28;20431;-60
2022/05/07 07:42:43;;;;;;;0.47;0.40;;;;;;;21.60;51.58;95809.78;5111933;28;20466;-60
2022/05/07 07:47:59;;;;;;;0.50;0.47;;;;;;;21.18;50.45;95804.28;5113638;28;20530;-59
2022/05/07 07:50:31;;;;;;;0.87;0.87;;;;;;;21.29;52.10;95805.53;5115941;28;20466;-59
2022/05/07 07:53:01;;;;;;;0.70;0.70;;;;;;;20.84;56.49;95802.50;5116076;28;20443;-59
2022/05/07 07:55:30;;;;;;;0.60;0.60;;;;;;;20.85;52.35;95760.97;5115979;28;20459;-59
2022/05/07 07:58:00;;;;;;;1.03;0.40;;;;;;;21.81;53.49;95811.38;5115960;28;20925;-57
2022/05/07 08:00:30;;;;;;;0.47;0.37;;;;;;;19.98;55.18;95809.91;5115149;28;20486;-57
2022/05/07 08:03:00;;;;;;;0.57;0.57;;;;;;;21.22;52.58;95807.16;5116094;28;20514;-56
2022/05/07 08:05:32;;;;;;;0.53;0.50;;;;;;;21.79;52.78;95807.44;5115373;28;20431;-58
2022/05/07 08:13:34;;;;;;;0.73;0.40;;;;;;;21.71;47.14;95789.41;5115727;28;20622;-59
2022/05/07 08:16:03;;;;;;;0.90;0.50;;;;;;;20.98;49.58;95790.72;5115606;28;20518;-61
2022/05/07 08:18:32;;;;;;;0.50;0.40;;;;;;;22.09;47.42;95790.09;5115857;28;20488;-60
2022/05/07 08:21:02;;;;;;;0.80;0.80;;;;;;;23.44;45.59;95774.66;5115814;28;20432;-61
2022/05/07 08:23:32;;;;;;;0.40;0.40;;;;;;;24.78;44.35;95783.97;5119864;28;20450;-61
2022/05/07 08:26:02;;;;;;;1.30;1.20;;;;;;;23.96;41.54;95785.50;5116945;28;20448;-60
2022/05/07 08:28:31;;;;;;;0.80;0.40;;;;;;;24.73;39.17;95707.50;5117246;28;20523;-60
2022/05/07 08:31:01;;;;;;;3.33;0.60;;;;;;;25.00;39.97;95777.97;5116809;28;20932;-60
2022/05/07 08:33:31;;;;;;;0.50;0.40;;;;;;;24.53;40.45;95782.50;5120803;28;20426;-52
2022/05/07 08:36:02;;;;;;;0.60;0.60;;;;;;;24.80;37.96;95773.56;5114978;28;20437;-60
2022/05/07 08:38:31;;;;;;;0.40;0.30;;;;;;;25.01;37.85;95770.63;5116237;28;20431;-60
2022/05/07 08:41:01;;;;;;;0.60;0.40;;;;;;;24.39;35.50;95771.28;5115216;28;20526;-63
2022/05/07 08:43:36;;;;;;;0.47;0.30;;;;;;;24.64;37.03;95764.63;5114636;28;20945;-63
2022/05/07 08:46:10;;;;;;;0.50;0.40;;;;;;;24.62;35.47;95767.66;5115422;28;20422;-64
2022/05/07 08:48:41;;;;;;;0.50;0.50;;;;;;;24.40;35.91;95762.03;5119429;28;20805;-62
2022/05/07 08:51:12;;;;;;;1.90;0.40;;;;;;;23.93;36.42;95759.13;5124041;28;20466;-64
2022/05/07 08:53:41;;;;;;;24.73;0.80;;;;;;;23.40;36.25;95762.16;5119713;28;20447;-62
2022/05/07 08:56:09;;;;;;;0.40;0.30;;;;;;;23.41;36.00;95759.09;5114706;28;20456;-62
2022/05/07 08:58:38;;;;;;;0.53;0.53;;;;;;;23.90;36.78;95763.31;5114058;28;20451;-62
2022/05/07 09:01:06;;;;;;;0.57;0.40;;;;;;;24.70;34.86;95755.06;5114104;28;20502;-67
2022/05/07 09:03:42;;;;;;;0.60;0.40;;;;;;;25.55;34.16;95749.84;5115082;28;20424;-63
2022/05/07 09:06:23;;;;;;;0.70;0.70;;;;;;;23.56;33.05;95727.84;5114748;28;20510;-64
2022/05/07 09:08:52;;;;;;;0.50;0.30;;;;;;;23.80;34.11;95744.84;5114526;28;20423;-63
2022/05/07 09:11:21;;;;;;;0.50;0.40;;;;;;;24.32;33.87;95744.78;5114569;28;20466;-64
2022/05/07 09:14:04;;;;;;;0.30;0.30;;;;;;;24.91;32.34;95733.16;5114765;28;20520;-64
2022/05/07 09:16:40;;;;;;;0.80;0.80;;;;;;;24.25;32.54;95735.69;5114687;28;20485;-59
2022/05/07 09:19:20;;;;;;;0.50;0.40;;;;;;;25.23;29.62;95683.97;5114359;28;20435;-59
2022/05/07 09:21:50;;;;;;;0.67;0.63;;;;;;;24.84;28.31;95724.88;5114318;28;20981;-60
2022/05/07 09:24:19;;;;;;;3.83;1.90;;;;;;;24.34;29.41;95730.88;5114666;28;20481;-60
2022/05/07 09:26:48;;;;;;;0.40;0.30;;;;;;;24.82;28.40;95659.38;5114579;28;20886;-57
2022/05/07 09:29:16;;;;;;;0.40;0.30;;;;;;;25.86;25.67;95653.91;5114176;28;20463;-57
2022/05/07 09:31:46;;;;;;;0.30;0.27;;;;;;;27.36;26.50;95702.38;5113243;28;21073;-56
2022/05/07 09:37:14;;;;;;;0.73;0.73;;;;;;;24.41;28.24;95709.41;5114351;28;20458;-56
2022/05/07 09:39:47;;;;;;;0.90;0.70;;;;;;;25.92;28.79;95682.34;5114039;28;20515;-56
2022/05/07 09:42:17;;;;;;;0.40;0.30;;;;;;;27.21;28.48;95706.84;5114312;28;20502;-58
2022/05/07 09:44:46;;;;;;;0.50;0.40;;;;;;;27.27;27.58;95669.22;5113583;28;20471;-63
2022/05/07 09:47:17;;;;;;;1.43;0.53;;;;;;;26.72;25.37;95706.78;5113495;28;20459;-59
2022/05/07 09:52:32;;;;;;;0.50;0.40;;;;;;;26.55;26.33;95673.84;5112931;28;20918;-66
2022/05/07 09:57:48;;;;;;;0.57;0.40;;;;;;;27.06;26.11;95675.91;5113961;28;20505;-67
2022/05/07 10:00:20;;;;;;;1.37;1.27;;;;;;;25.15;27.46;95689.56;5113995;28;20860;-65
2022/05/07 10:03:04;;;;;;;0.40;0.30;;;;;;;25.98;26.92;95639.41;5113840;28;20427;-66
2022/05/07 10:06:04;;;;;;;0.40;0.40;;;;;;;27.73;27.57;95674.16;5113882;28;20496;-57
2022/05/07 10:08:46;;;;;;;0.83;0.83;;;;;;;28.15;27.42;95671.19;5094655;28;20471;-56
2022/05/07 10:11:16;;;;;;;2.40;1.73;;;;;;;26.84;25.67;95618.81;5112642;28;20487;-57
2022/05/07 10:13:54;;;;;;;0.73;0.53;;;;;;;26.58;27.28;95663.03;5113518;28;20455;-60
2022/05/07 10:16:23;;;;;;;0.73;0.73;;;;;;;27.15;27.45;95634.06;5113477;28;20820;-52
2022/05/07 10:18:52;;;;;;;0.40;0.30;;;;;;;27.74;22.79;95658.59;5113164;28;20949;-53
2022/05/07 10:21:21;;;;;;;0.80;0.30;;;;;;;28.11;22.29;95645.81;5113343;28;20447;-52
2022/05/07 10:23:55;;;;;;;0.60;0.60;;;;;;;27.24;22.15;95662.56;5113026;28;20432;-52
2022/05/07 10:26:25;;;;;;;0.40;0.30;;;;;;;28.08;23.28;95641.13;5113028;28;20941;-52
2022/05/07 10:28:53;;;;;;;0.40;0.30;;;;;;;27.10;21.15;95646.03;5112865;28;20474;-53
2022/05/07 10:31:23;;;;;;;0.40;0.30;;;;;;;28.74;20.71;95642.19;5113172;28;20459;-52
2022/05/07 10:33:53;;;;;;;0.67;0.67;;;;;;;27.14;21.56;95637.91;5112437;28;20526;-52
2022/05/07 10:36:21;;;;;;;1.90;1.80;;;;;;;27.23;22.89;95639.22;5112457;28;20473;-52
2022/05/07 10:38:50;;;;;;;0.40;0.30;;;;;;;27.29;21.07;95602.38;5112946;28;20818;-52
2022/05/07 10:41:24;;;;;;;0.40;0.30;;;;;;;27.90;21.07;95631.16;5113056;28;20424;-52
2022/05/07 10:44:06;;;;;;;0.60;0.60;;;;;;;28.57;20.92;95620.94;5112580;28;21035;-52
2022/05/07 10:46:42;;;;;;;0.70;0.30;;;;;;;27.98;19.97;95625.41;5112693;28;20513;-52
2022/05/07 10:49:11;;;;;;;0.40;0.40;;;;;;;28.29;16.85;95622.25;5112655;28;20423;-52
2022/05/07 10:51:50;;;;;;;0.40;0.30;;;;;;;29.79;19.25;95617.53;5112472;28;20502;-52
2022/05/07 10:54:22;;;;;;;0.50;0.50;;;;;;;28.64;22.17;95602.72;5112630;28;20439;-52
2022/05/07 10:56:54;;;;;;;0.57;0.40;;;;;;;28.12;22.07;95573.03;5112448;28;20989;-52
2022/05/07 10:59:23;;;;;;;0.30;0.30;;;;;;;26.68;20.57;95616.22;5112403;28;20517;-53
2022/05/07 11:01:55;;;;;;;0.40;0.30;;;;;;;27.18;19.02;95598.72;5112148;28;20475;-52
2022/05/07 11:04:24;;;;;;;0.30;0.30;;;;;;;28.16;20.95;95603.81;5112664;28;20488;-51
2022/05/07 11:06:53;;;;;;;0.40;0.30;;;;;;;28.55;21.48;95604.19;5112243;28;20470;-52
2022/05/07 11:09:24;;;;;;;0.57;0.57;;;;;;;29.17;21.03;95597.63;5113003;28;21040;-63
2022/05/07 11:11:57;;;;;;;0.40;0.30;;;;;;;28.22;20.54;95585.97;5115188;28;20470;-62
2022/05/07 11:14:30;;;;;;;0.70;0.70;;;;;;;27.84;21.13;95584.38;5116091;28;20883;-61
2022/05/07 11:17:00;;;;;;;0.67;0.50;;;;;;;28.34;22.96;95574.78;5115734;28;20964;-62
2022/05/07 11:19:31;;;;;;;0.40;0.30;;;;;;;29.16;22.48;95573.47;5107346;28;20512;-64
2022/05/07 11:22:00;;;;;;;0.70;0.40;;;;;;;29.67;22.37;95554.22;5105199;28;20470;-62
2022/05/07 11:24:30;;;;;;;1.23;0.80;;;;;;;29.02;21.51;95570.66;5100604;28;20996;-56
2022/05/07 11:27:03;;;;;;;0.40;0.37;;;;;;;27.67;22.57;95565.91;5103416;28;20537;-56
2022/05/07 11:29:31;;;;;;;0.40;0.30;;;;;;;28.30;22.59;95546.72;5091949;28;20432;-55
2022/05/07 11:32:01;;;;;;;0.47;0.40;;;;;;;28.81;23.87;95558.44;5091848;28;20929;-59
2022/05/07 11:34:32;;;;;;;0.97;0.40;;;;;;;28.00;23.95;95567.81;5091875;28;20508;-58
2022/05/07 11:37:17;;;;;;;1.00;0.50;;;;;;;28.26;25.35;95559.50;5099097;28;20474;-58
2022/05/07 11:39:53;;;;;;;0.50;0.40;;;;;;;27.76;24.59;95558.22;5111539;28;20979;-57
2022/05/07 11:42:34;;;;;;;3.27;2.93;;;;;;;27.69;25.39;95541.81;5111442;28;20475;-56
2022/05/07 11:45:29;;;;;;;0.50;0.50;;;;;;;28.85;24.44;95555.72;5106793;28;20459;-57
2022/05/07 11:48:00;;;;;;;0.40;0.30;;;;;;;29.17;24.28;95452.19;5110704;28;20511;-56
2022/05/07 11:50:30;;;;;;;0.33;0.30;;;;;;;29.68;23.42;95531.19;5110258;28;20447;-57
2022/05/07 11:53:11;;;;;;;0.63;0.60;;;;;;;28.45;23.65;95539.44;5110650;28;20483;-57
2022/05/07 11:55:39;;;;;;;0.57;0.50;;;;;;;26.89;25.44;95545.81;5112051;28;20458;-57
2022/05/07 11:58:17;;;;;;;5.93;0.97;;;;;;;27.83;26.56;95527.56;5109060;28;20512;-57
2022/05/07 12:00:46;;;;;;;1.47;0.50;;;;;;;28.34;24.41;95495.72;5099941;28;20440;-57
2022/05/07 12:03:18;;;;;;;0.70;0.70;;;;;;;27.26;25.31;95532.34;5091026;28;20848;-57
2022/05/07 12:05:48;;;;;;;0.50;0.40;;;;;;;26.59;25.22;95534.09;5090583;28;20428;-59
2022/05/07 12:08:18;;;;;;;0.50;0.50;;;;;;;26.01;25.99;95445.84;5095046;28;20476;-58
2022/05/07 12:10:48;;;;;;;0.43;0.43;;;;;;;27.41;25.40;95525.16;5111879;28;20435;-58